M/T Havva Ana — V7RE3 — position and weather

sailwx.info

Track history (hours):
 
Tides and Currents Weather Stations Pressure Air Temp Water Temp Dewpoint Dewpoint Depression Visibility Wind Speed Wind Dir Waves Ship Positions

M/T Havva Ana

Last reported at 2014-Dec-17 09:10 UTC. Time now 2014-Dec-22 19:31 UTC.
Position N 41°26' E 029°37'.

Length 124 m; draft 5 m.

Type: Tanker. MMSI: 538003488.

Date/timePositionNaut miles runAvg speedWind from/ knotsBaromVisibWave heightAir tempDewpointWater temp
2014-Dec-17 09:10N 41°26' E 029°37'913.7
2014-Dec-17 08:31N 41°23' E 029°26'3012.0
2014-Dec-17 06:03N 41°01' E 028°60'611.1
2014-Dec-17 05:33N 40°56' E 028°57'4 1.7
2014-Dec-17 03:10N 40°57' E 028°51'0 0.0
2014-Dec-17 02:22N 40°57' E 028°51'0 0.0
2014-Dec-17 00:22N 40°57' E 028°51'0 0.0
2014-Dec-16 23:07N 40°57' E 028°51'0 0.0
2014-Dec-16 21:31N 40°57' E 028°51'0 0.0
2014-Dec-16 20:25N 40°57' E 028°51'0 0.0
2014-Dec-16 17:19N 40°57' E 028°51'0 0.0
2014-Dec-16 13:25N 40°57' E 028°51'0 0.0
2014-Dec-16 06:31N 40°57' E 028°51'  
2014-Dec-13 05:28N 37°45' E 024°33'1411.1
2014-Dec-13 04:11N 37°33' E 024°25'811.6
2014-Dec-13 03:32N 37°27' E 024°19'4811.2
2014-Dec-12 23:16N 36°49' E 023°42'47711.4
2014-Dec-11 05:33N 36°38' E 013°47'1313.1
2014-Dec-11 04:32N 36°46' E 013°33'25312.0
2014-Dec-10 07:24N 38°30' E 008°42'2412.0
2014-Dec-10 05:24N 38°36' E 008°12'25110.7
2014-Dec-09 06:03N 40°30' E 003°23'510.8
2014-Dec-09 05:33N 40°32' E 003°16'1010.4
2014-Dec-09 04:33N 40°36' E 003°03'1110.6
2014-Dec-09 03:33N 40°39' E 002°50'1312.8
2014-Dec-09 02:33N 40°43' E 002°34'1312.8
2014-Dec-09 01:33N 40°47' E 002°18'1312.6
2014-Dec-09 00:33N 40°51' E 002°02'  
Track history (hours):
 
Tides and Currents Weather Stations Pressure Air Temp Water Temp Dewpoint Dewpoint Depression Visibility Wind Speed Wind Dir Waves Ship Positions

M/T Havva Ana

Last reported at 2014-Dec-17 09:10 UTC. Time now 2014-Dec-22 19:31 UTC.
Position N 41°26' E 029°37'.

Length 124 m; draft 5 m.

Type: Tanker. MMSI: 538003488.

Date/timePositionNaut miles runAvg speedWind from/ knotsBaromVisibWave heightAir tempDewpointWater temp
2014-Dec-17 09:10N 41°26' E 029°37'913.7
2014-Dec-17 08:31N 41°23' E 029°26'3012.0
2014-Dec-17 06:03N 41°01' E 028°60'611.1
2014-Dec-17 05:33N 40°56' E 028°57'4 1.7
2014-Dec-17 03:10N 40°57' E 028°51'0 0.0
2014-Dec-17 02:22N 40°57' E 028°51'0 0.0
2014-Dec-17 00:22N 40°57' E 028°51'0 0.0
2014-Dec-16 23:07N 40°57' E 028°51'0 0.0
2014-Dec-16 21:31N 40°57' E 028°51'0 0.0
2014-Dec-16 20:25N 40°57' E 028°51'0 0.0
2014-Dec-16 17:19N 40°57' E 028°51'0 0.0
2014-Dec-16 13:25N 40°57' E 028°51'0 0.0
2014-Dec-16 06:31N 40°57' E 028°51'  
2014-Dec-13 05:28N 37°45' E 024°33'1411.1
2014-Dec-13 04:11N 37°33' E 024°25'811.6
2014-Dec-13 03:32N 37°27' E 024°19'4811.2
2014-Dec-12 23:16N 36°49' E 023°42'47711.4
2014-Dec-11 05:33N 36°38' E 013°47'1313.1
2014-Dec-11 04:32N 36°46' E 013°33'25312.0
2014-Dec-10 07:24N 38°30' E 008°42'2412.0
2014-Dec-10 05:24N 38°36' E 008°12'25110.7
2014-Dec-09 06:03N 40°30' E 003°23'510.8
2014-Dec-09 05:33N 40°32' E 003°16'1010.4
2014-Dec-09 04:33N 40°36' E 003°03'1110.6
2014-Dec-09 03:33N 40°39' E 002°50'1312.8
2014-Dec-09 02:33N 40°43' E 002°34'1312.8
2014-Dec-09 01:33N 40°47' E 002°18'1312.6
2014-Dec-09 00:33N 40°51' E 002°02'  

Dump ship's entire track history